createdAt,value
2017-04-27T00:00:09.910Z,71.80
2017-04-27T00:02:36.335Z,71.80
2017-04-27T00:05:02.937Z,70.70
2017-04-27T00:07:29.727Z,69.50
2017-04-27T00:09:56.521Z,70.30
2017-04-27T00:12:23.297Z,70.30
2017-04-27T00:14:50.089Z,69.20
2017-04-27T00:17:16.923Z,69.30
2017-04-27T00:19:43.692Z,70.30
2017-04-27T00:22:10.576Z,71.00
2017-04-27T00:24:36.976Z,71.00
2017-04-27T00:27:03.833Z,70.30
2017-04-27T00:29:30.609Z,70.20
2017-04-27T00:31:57.476Z,70.60
2017-04-27T00:34:24.269Z,70.40
2017-04-27T00:36:51.105Z,70.50
2017-04-27T00:39:17.582Z,70.50
2017-04-27T00:41:44.429Z,72.10
2017-04-27T00:44:11.209Z,71.60
2017-04-27T00:46:37.651Z,71.60
2017-04-27T00:49:04.408Z,72.20
2017-04-27T00:51:31.552Z,71.30
2017-04-27T00:53:58.321Z,71.30
2017-04-27T00:56:25.226Z,71.10
2017-04-27T00:58:51.665Z,71.10
2017-04-27T01:01:18.117Z,71.10
2017-04-27T01:03:44.909Z,71.90
2017-04-27T01:06:12.162Z,71.50
2017-04-27T01:08:38.965Z,71.90
2017-04-27T01:11:05.804Z,72.50
2017-04-27T01:13:33.365Z,72.70
2017-04-27T01:16:00.226Z,73.50
2017-04-27T01:18:27.014Z,74.30
2017-04-27T01:20:53.526Z,74.30
2017-04-27T01:23:20.325Z,73.50
2017-04-27T01:25:47.180Z,72.70
2017-04-27T01:28:13.950Z,72.30
2017-04-27T01:30:40.823Z,73.10
2017-04-27T01:33:07.257Z,73.10
2017-04-27T01:35:33.745Z,73.20
2017-04-27T01:38:00.185Z,73.00
2017-04-27T01:40:26.661Z,72.40
2017-04-27T01:42:53.479Z,71.30
2017-04-27T01:45:20.767Z,71.60
2017-04-27T01:47:47.570Z,71.70
2017-04-27T01:50:14.396Z,71.70
2017-04-27T01:52:41.181Z,73.30
2017-04-27T01:55:08.021Z,74.10
2017-04-27T01:57:34.814Z,73.60
2017-04-27T02:00:01.902Z,72.50
2017-04-27T02:02:28.751Z,73.60
2017-04-27T02:04:55.540Z,73.90
2017-04-27T02:07:23.832Z,72.80
2017-04-27T02:09:50.611Z,74.00
2017-04-27T02:12:17.505Z,72.70
2017-04-27T02:14:44.288Z,71.80
2017-04-27T02:17:11.442Z,71.90
2017-04-27T02:19:38.244Z,72.10
2017-04-27T02:22:04.705Z,72.10
2017-04-27T02:24:31.488Z,71.60
2017-04-27T02:26:58.352Z,72.10
2017-04-27T02:29:25.117Z,71.40
2017-04-27T02:31:52.324Z,71.10
2017-04-27T02:34:19.100Z,71.90
2017-04-27T02:36:45.979Z,71.30
2017-04-27T02:39:12.777Z,71.00
2017-04-27T02:41:39.912Z,71.00
2017-04-27T02:44:07.131Z,70.40
2017-04-27T02:46:33.645Z,70.40
2017-04-27T02:49:00.405Z,71.20
2017-04-27T02:51:27.213Z,71.90
2017-04-27T02:53:53.997Z,72.50
2017-04-27T02:56:21.344Z,72.30
2017-04-27T02:58:48.134Z,72.30
2017-04-27T03:01:14.989Z,73.40
2017-04-27T03:03:41.414Z,73.40
2017-04-27T03:06:08.212Z,73.90
2017-04-27T03:08:35.042Z,73.50
2017-04-27T03:11:01.498Z,73.50
2017-04-27T03:13:28.241Z,71.90
2017-04-27T03:15:55.058Z,72.90
2017-04-27T03:18:21.829Z,72.10
2017-04-27T03:20:48.650Z,72.40
2017-04-27T03:23:15.469Z,72.40
2017-04-27T03:25:42.210Z,72.40
2017-04-27T03:28:08.649Z,71.90
2017-04-27T03:30:35.496Z,70.80
2017-04-27T03:33:02.304Z,70.20
2017-04-27T03:35:28.752Z,70.20
2017-04-27T03:37:55.569Z,71.20
2017-04-27T03:40:22.076Z,71.20
2017-04-27T03:42:48.855Z,70.70
2017-04-27T03:45:16.122Z,70.60
2017-04-27T03:47:42.536Z,70.60
2017-04-27T03:50:09.400Z,69.80
2017-04-27T03:52:36.205Z,69.00
2017-04-27T03:55:02.715Z,69.00
2017-04-27T03:57:29.493Z,69.30
2017-04-27T03:59:56.277Z,69.60
2017-04-27T04:02:23.122Z,68.80
2017-04-27T04:04:49.934Z,69.60
2017-04-27T04:07:16.764Z,70.50
2017-04-27T04:09:43.158Z,70.50
2017-04-27T04:12:10.065Z,71.20
2017-04-27T04:14:36.882Z,71.60
2017-04-27T04:17:03.744Z,71.70
2017-04-27T04:19:30.517Z,72.20
2017-04-27T04:21:57.362Z,73.00
2017-04-27T04:24:24.169Z,72.40
2017-04-27T04:26:51.037Z,72.10
2017-04-27T04:29:17.466Z,72.10
2017-04-27T04:31:44.333Z,71.30
2017-04-27T04:34:11.128Z,71.30
2017-04-27T04:36:37.931Z,71.80
2017-04-27T04:39:04.408Z,71.80
2017-04-27T04:41:31.222Z,71.30
2017-04-27T04:43:58.030Z,70.60
2017-04-27T04:46:25.236Z,70.00
2017-04-27T04:48:52.369Z,69.60
2017-04-27T04:51:19.267Z,68.70
2017-04-27T04:53:46.061Z,69.70
2017-04-27T04:56:12.541Z,69.70
2017-04-27T04:58:39.337Z,70.00
2017-04-27T05:01:05.798Z,70.00
2017-04-27T05:03:32.577Z,69.30
2017-04-27T05:05:59.440Z,69.30
2017-04-27T05:08:26.214Z,68.30
2017-04-27T05:10:53.157Z,69.30
2017-04-27T05:13:20.022Z,70.50
2017-04-27T05:15:46.869Z,70.20
2017-04-27T05:18:13.269Z,70.30
2017-04-27T05:20:40.092Z,70.10
2017-04-27T05:23:06.885Z,69.30
2017-04-27T05:25:34.130Z,69.40
2017-04-27T05:28:00.925Z,69.40
2017-04-27T05:30:27.736Z,68.80
2017-04-27T05:32:54.542Z,68.10
2017-04-27T05:35:21.013Z,68.10
2017-04-27T05:37:47.817Z,68.70
2017-04-27T05:40:14.661Z,69.90
2017-04-27T05:42:41.407Z,68.50
2017-04-27T05:45:07.877Z,68.50
2017-04-27T05:47:34.648Z,69.10
2017-04-27T05:50:01.358Z,69.10
2017-04-27T05:52:28.098Z,69.00
2017-04-27T05:54:54.904Z,68.70
2017-04-27T05:57:21.704Z,68.80
2017-04-27T05:59:48.854Z,69.00
2017-04-27T06:02:16.146Z,69.90
2017-04-27T06:04:42.941Z,68.90
2017-04-27T06:07:09.790Z,68.20
2017-04-27T06:09:36.588Z,68.30
2017-04-27T06:12:03.033Z,68.30
2017-04-27T06:14:29.805Z,68.90
2017-04-27T06:16:56.289Z,68.90
2017-04-27T06:19:23.078Z,67.90
2017-04-27T06:21:49.569Z,67.90
2017-04-27T06:24:16.345Z,67.20
2017-04-27T06:26:43.219Z,67.00
2017-04-27T06:29:09.981Z,67.50
2017-04-27T06:31:36.814Z,67.70
2017-04-27T06:34:03.625Z,67.40
2017-04-27T06:36:30.449Z,68.10
2017-04-27T06:38:57.233Z,67.80
2017-04-27T06:41:24.044Z,68.70
2017-04-27T06:43:50.851Z,68.50
2017-04-27T06:46:17.729Z,67.70
2017-04-27T06:48:44.517Z,68.40
2017-04-27T06:51:11.335Z,67.10
2017-04-27T06:53:38.592Z,67.30
2017-04-27T06:56:05.041Z,67.30
2017-04-27T06:58:31.846Z,67.30
2017-04-27T07:00:58.674Z,67.50
2017-04-27T07:03:25.469Z,67.20
2017-04-27T07:05:51.941Z,67.10
2017-04-27T07:08:18.653Z,67.20
2017-04-27T07:10:45.506Z,67.00
2017-04-27T07:13:12.325Z,66.20
2017-04-27T07:15:39.559Z,65.70
2017-04-27T07:18:06.356Z,67.30
2017-04-27T07:20:33.085Z,67.30
2017-04-27T07:22:59.498Z,67.10
2017-04-27T07:25:25.957Z,67.10
2017-04-27T07:27:52.369Z,67.00
2017-04-27T07:30:18.845Z,67.40
2017-04-27T07:32:45.294Z,66.60
2017-04-27T07:35:11.725Z,66.60
2017-04-27T07:37:38.518Z,66.60
2017-04-27T07:40:05.369Z,67.40
2017-04-27T07:42:31.806Z,67.40
2017-04-27T07:44:58.582Z,65.80
2017-04-27T07:47:25.072Z,65.80
2017-04-27T07:49:51.863Z,65.20
2017-04-27T07:52:18.750Z,65.40
2017-04-27T07:54:45.517Z,64.80
2017-04-27T07:57:12.370Z,64.80
2017-04-27T07:59:39.186Z,67.80
2017-04-27T08:02:06.075Z,66.60
2017-04-27T08:04:32.883Z,66.10
2017-04-27T08:06:59.813Z,65.60
2017-04-27T08:09:26.996Z,64.90
2017-04-27T08:11:54.258Z,65.30
2017-04-27T08:14:20.653Z,65.30
2017-04-27T08:16:47.493Z,65.80
2017-04-27T08:19:13.906Z,65.90
2017-04-27T08:21:40.720Z,67.10
2017-04-27T08:24:07.149Z,67.20
2017-04-27T08:26:34.019Z,63.40
2017-04-27T08:29:00.440Z,63.40
2017-04-27T08:31:27.255Z,64.30
2017-04-27T08:33:54.291Z,65.00
2017-04-27T08:36:21.465Z,66.60
2017-04-27T08:38:47.928Z,66.60
2017-04-27T08:41:14.829Z,64.80
2017-04-27T08:43:41.768Z,65.40
2017-04-27T08:46:08.202Z,65.40
2017-04-27T08:48:35.029Z,65.60
2017-04-27T08:51:01.857Z,63.90
2017-04-27T08:53:28.641Z,65.60
2017-04-27T08:55:55.515Z,65.40
2017-04-27T08:58:22.335Z,66.40
2017-04-27T09:00:49.681Z,65.70
2017-04-27T09:03:16.475Z,66.20
2017-04-27T09:05:43.320Z,66.30
2017-04-27T09:08:10.114Z,67.40
2017-04-27T09:10:37.010Z,67.10
2017-04-27T09:13:03.431Z,67.00
2017-04-27T09:15:30.255Z,65.30
2017-04-27T09:17:57.028Z,66.20
2017-04-27T09:20:23.927Z,65.40
2017-04-27T09:22:50.730Z,64.80
2017-04-27T09:25:17.179Z,64.80
2017-04-27T09:27:43.600Z,63.50
2017-04-27T09:30:10.069Z,64.60
2017-04-27T09:32:36.857Z,62.00
2017-04-27T09:35:04.116Z,62.30
2017-04-27T09:37:30.949Z,59.90
2017-04-27T09:39:58.181Z,59.70
2017-04-27T09:42:24.720Z,59.70
2017-04-27T09:44:51.490Z,60.50
2017-04-27T09:47:18.401Z,60.50
2017-04-27T09:49:44.865Z,61.40
2017-04-27T09:52:11.750Z,61.10
2017-04-27T09:54:38.571Z,61.60
2017-04-27T09:57:05.421Z,62.60
2017-04-27T09:59:31.896Z,62.60
2017-04-27T10:01:58.425Z,61.90
2017-04-27T10:04:25.214Z,60.70
2017-04-27T10:06:51.696Z,60.70
2017-04-27T10:09:18.482Z,59.90
2017-04-27T10:11:45.234Z,59.90
2017-04-27T10:14:12.011Z,59.70
2017-04-27T10:16:38.943Z,60.60
2017-04-27T10:19:05.413Z,60.60
2017-04-27T10:21:32.330Z,61.60
2017-04-27T10:23:59.125Z,61.40
2017-04-27T10:26:25.598Z,61.40
2017-04-27T10:28:51.996Z,61.00
2017-04-27T10:31:19.160Z,63.00
2017-04-27T10:33:45.943Z,63.90
2017-04-27T10:36:12.833Z,65.30
2017-04-27T10:38:39.282Z,65.30
2017-04-27T10:41:06.140Z,64.80
2017-04-27T10:43:33.218Z,64.90
2017-04-27T10:46:00.074Z,64.70
2017-04-27T10:48:26.504Z,64.70
2017-04-27T10:50:53.765Z,64.20
2017-04-27T10:53:20.938Z,64.00
2017-04-27T10:55:47.769Z,65.30
2017-04-27T10:58:14.194Z,65.30
2017-04-27T11:00:41.418Z,64.30
2017-04-27T11:03:08.211Z,64.30
2017-04-27T11:05:34.718Z,64.30
2017-04-27T11:08:01.896Z,60.60
2017-04-27T11:10:28.410Z,60.60
2017-04-27T11:12:55.207Z,60.70
2017-04-27T11:15:21.995Z,60.70
2017-04-27T11:17:48.376Z,60.80
2017-04-27T11:20:14.900Z,62.00
2017-04-27T11:22:41.433Z,60.30
2017-04-27T11:25:08.321Z,62.40
2017-04-27T11:27:34.750Z,62.40
2017-04-27T11:30:01.578Z,62.40
2017-04-27T11:32:28.382Z,62.10
2017-04-27T11:34:55.101Z,62.10
2017-04-27T11:37:21.576Z,61.70
2017-04-27T11:39:48.346Z,61.40
2017-04-27T11:42:14.776Z,61.40
2017-04-27T11:44:41.190Z,61.60
2017-04-27T11:47:08.044Z,60.60
2017-04-27T11:49:34.826Z,61.90
2017-04-27T11:52:01.742Z,60.30
2017-04-27T11:54:28.524Z,61.70
2017-04-27T11:56:54.997Z,61.70
2017-04-27T11:59:21.439Z,61.60
2017-04-27T12:01:48.173Z,62.60
2017-04-27T12:04:14.655Z,61.50
2017-04-27T12:06:41.576Z,63.10
2017-04-27T12:09:08.389Z,63.30
2017-04-27T12:11:35.257Z,64.00
2017-04-27T12:14:01.721Z,64.00
2017-04-27T12:16:29.129Z,63.00
2017-04-27T12:18:55.925Z,63.50
2017-04-27T12:21:22.770Z,62.70
2017-04-27T12:23:49.537Z,63.10
2017-04-27T12:26:16.404Z,63.40
2017-04-27T12:28:42.800Z,63.40
2017-04-27T12:31:09.641Z,64.40
2017-04-27T12:33:36.498Z,64.20
2017-04-27T12:36:03.006Z,64.20
2017-04-27T12:38:29.770Z,65.20
2017-04-27T12:40:56.605Z,64.60
2017-04-27T12:43:23.365Z,65.50
2017-04-27T12:45:50.669Z,64.60
2017-04-27T12:48:17.078Z,64.60
2017-04-27T12:50:44.263Z,64.20
2017-04-27T12:53:11.041Z,65.90
2017-04-27T12:55:37.885Z,64.20
2017-04-27T12:58:05.068Z,63.90
2017-04-27T13:00:31.903Z,64.00
2017-04-27T13:02:59.139Z,63.80
2017-04-27T13:05:25.630Z,63.80
2017-04-27T13:07:52.465Z,65.10
2017-04-27T13:10:19.354Z,64.50
2017-04-27T13:12:46.858Z,64.60
2017-04-27T13:15:13.785Z,64.50
2017-04-27T13:17:41.603Z,64.50
2017-04-27T13:20:08.134Z,63.00
2017-04-27T13:22:35.330Z,65.60
2017-04-27T13:25:02.607Z,66.00
2017-04-27T13:27:29.028Z,66.00
2017-04-27T13:29:55.825Z,66.30
2017-04-27T13:32:22.709Z,66.90
2017-04-27T13:34:49.518Z,66.20
2017-04-27T13:37:16.701Z,66.80
2017-04-27T13:39:43.841Z,66.30
2017-04-27T13:42:10.678Z,65.30
2017-04-27T13:44:37.886Z,65.30
2017-04-27T13:47:04.729Z,66.20
2017-04-27T13:49:31.172Z,66.20
2017-04-27T13:51:58.051Z,65.50
2017-04-27T13:54:24.491Z,65.60
2017-04-27T13:56:51.335Z,66.20
2017-04-27T13:59:18.162Z,66.60
2017-04-27T14:01:45.268Z,66.00
2017-04-27T14:04:11.713Z,66.00
2017-04-27T14:06:38.601Z,65.70
2017-04-27T14:09:05.029Z,65.70
2017-04-27T14:11:31.895Z,65.40
2017-04-27T14:13:58.785Z,68.30
2017-04-27T14:16:25.621Z,68.20
2017-04-27T14:18:52.463Z,66.90
2017-04-27T14:21:19.364Z,66.20
2017-04-27T14:23:46.264Z,67.70
2017-04-27T14:26:12.817Z,67.70
2017-04-27T14:28:39.966Z,67.40
2017-04-27T14:31:06.826Z,67.40
2017-04-27T14:33:33.650Z,66.90
2017-04-27T14:36:00.831Z,66.10
2017-04-27T14:38:27.625Z,68.70
2017-04-27T14:40:54.494Z,68.40
2017-04-27T14:43:21.657Z,68.80
2017-04-27T14:45:48.512Z,68.00
2017-04-27T14:48:15.334Z,67.30
2017-04-27T14:50:41.829Z,67.30
2017-04-27T14:53:08.279Z,67.10
2017-04-27T14:55:35.518Z,65.00
2017-04-27T14:58:02.403Z,64.70
2017-04-27T15:00:28.993Z,64.90
2017-04-27T15:02:55.829Z,66.40
2017-04-27T15:05:23.068Z,66.90
2017-04-27T15:07:49.885Z,66.90
2017-04-27T15:10:16.764Z,65.40
2017-04-27T15:12:43.613Z,65.60
2017-04-27T15:15:11.264Z,65.60
2017-04-27T15:17:37.701Z,65.60
2017-04-27T15:20:04.561Z,66.50
2017-04-27T15:22:31.011Z,66.50
2017-04-27T15:24:57.431Z,66.70
2017-04-27T15:27:24.718Z,67.00
2017-04-27T15:29:51.507Z,67.30
2017-04-27T15:32:18.104Z,67.30
2017-04-27T15:34:44.882Z,67.70
2017-04-27T15:37:11.745Z,67.70
2017-04-27T15:39:38.552Z,68.10
2017-04-27T15:42:06.595Z,67.90
2017-04-27T15:44:33.266Z,67.90
2017-04-27T15:47:00.137Z,68.00
2017-04-27T15:49:27.304Z,68.00
2017-04-27T15:51:54.203Z,68.10
2017-04-27T15:54:21.010Z,70.70
2017-04-27T15:56:47.501Z,70.70
2017-04-27T15:59:14.778Z,70.70
2017-04-27T16:01:41.985Z,73.90
2017-04-27T16:04:08.424Z,73.90
2017-04-27T16:06:35.774Z,73.50
2017-04-27T16:09:02.613Z,71.20
2017-04-27T16:11:29.505Z,71.00
2017-04-27T16:13:56.314Z,72.90
2017-04-27T16:16:23.186Z,75.30
2017-04-27T16:18:49.616Z,75.30
2017-04-27T16:21:16.885Z,76.50
2017-04-27T16:23:43.308Z,76.50
2017-04-27T16:26:10.178Z,74.70
2017-04-27T16:28:36.999Z,72.40
2017-04-27T16:31:03.903Z,73.00
2017-04-27T16:33:30.374Z,73.00
2017-04-27T16:35:57.562Z,76.80
2017-04-27T16:38:24.361Z,78.40
2017-04-27T16:40:51.233Z,77.60
2017-04-27T16:43:18.009Z,76.80
2017-04-27T16:45:44.898Z,76.80
2017-04-27T16:48:11.748Z,74.20
2017-04-27T16:50:38.646Z,76.20
2017-04-27T16:53:05.115Z,76.10
2017-04-27T16:55:32.262Z,72.90
2017-04-27T16:57:59.096Z,76.20
2017-04-27T17:00:25.634Z,76.20
2017-04-27T17:02:52.457Z,73.60
2017-04-27T17:05:20.149Z,73.60
2017-04-27T17:07:47.015Z,72.40
2017-04-27T17:10:13.859Z,71.80
2017-04-27T17:12:40.670Z,72.10
2017-04-27T17:15:07.531Z,71.50
2017-04-27T17:17:34.333Z,71.80
2017-04-27T17:20:01.913Z,71.80
2017-04-27T17:22:28.786Z,72.00
2017-04-27T17:24:55.587Z,71.20
2017-04-27T17:27:22.462Z,70.40
2017-04-27T17:29:49.295Z,71.20
2017-04-27T17:32:16.551Z,71.70
2017-04-27T17:34:43.010Z,71.70
2017-04-27T17:37:09.867Z,71.40
2017-04-27T17:39:37.134Z,73.20
2017-04-27T17:42:03.978Z,74.90
2017-04-27T17:44:31.165Z,75.00
2017-04-27T17:46:58.007Z,75.00
2017-04-27T17:49:24.830Z,75.50
2017-04-27T17:51:51.337Z,75.40
2017-04-27T17:54:18.172Z,76.60
2017-04-27T17:56:45.002Z,75.70
2017-04-27T17:59:12.086Z,74.00
2017-04-27T18:01:38.627Z,74.00
2017-04-27T18:04:05.415Z,75.00
2017-04-27T18:06:32.284Z,73.70
2017-04-27T18:08:58.698Z,73.70
2017-04-27T18:11:25.821Z,74.50
2017-04-27T18:13:53.252Z,73.60
2017-04-27T18:16:21.043Z,73.20
2017-04-27T18:18:47.835Z,73.40
2017-04-27T18:21:14.368Z,73.50
2017-04-27T18:23:40.817Z,72.90
2017-04-27T18:26:07.657Z,72.60
2017-04-27T18:28:34.090Z,72.60
2017-04-27T18:31:02.700Z,73.10
2017-04-27T18:33:29.517Z,72.90
2017-04-27T18:35:57.533Z,73.30
2017-04-27T18:38:23.954Z,73.30
2017-04-27T18:40:50.814Z,72.20
2017-04-27T18:43:17.655Z,72.40
2017-04-27T18:45:44.101Z,72.40
2017-04-27T18:48:11.090Z,73.40
2017-04-27T18:50:37.927Z,74.50
2017-04-27T18:53:04.734Z,73.50
2017-04-27T18:55:32.064Z,72.50
2017-04-27T18:57:58.843Z,73.10
2017-04-27T19:00:25.713Z,73.50
2017-04-27T19:02:52.534Z,74.10
2017-04-27T19:05:19.367Z,74.10
2017-04-27T19:07:46.833Z,73.20
2017-04-27T19:10:13.349Z,74.00
2017-04-27T19:12:40.197Z,73.50
2017-04-27T19:15:07.054Z,72.40
2017-04-27T19:17:34.227Z,73.40
2017-04-27T19:20:00.650Z,73.50
2017-04-27T19:22:27.545Z,73.60
2017-04-27T19:24:54.336Z,72.70
2017-04-27T19:27:21.627Z,73.00
2017-04-27T19:29:48.426Z,73.00
2017-04-27T19:32:15.003Z,73.10
2017-04-27T19:34:41.972Z,72.00
2017-04-27T19:37:09.459Z,71.50
2017-04-27T19:39:36.284Z,71.20
2017-04-27T19:42:03.434Z,72.10
2017-04-27T19:44:30.295Z,72.30
2017-04-27T19:46:57.196Z,72.00
2017-04-27T19:49:23.696Z,72.00
2017-04-27T19:51:50.235Z,73.40
2017-04-27T19:54:18.313Z,72.80
2017-04-27T19:56:44.814Z,72.80
2017-04-27T19:59:11.260Z,73.30
2017-04-27T20:01:38.840Z,74.30
2017-04-27T20:04:06.279Z,74.20
2017-04-27T20:06:32.774Z,74.10
2017-04-27T20:08:59.617Z,73.20
2017-04-27T20:11:26.539Z,73.20
2017-04-27T20:13:53.378Z,73.60
2017-04-27T20:16:19.954Z,73.60
2017-04-27T20:18:46.771Z,73.70
2017-04-27T20:21:14.403Z,73.70
2017-04-27T20:23:41.219Z,73.20
2017-04-27T20:26:08.082Z,72.70
2017-04-27T20:28:34.914Z,73.40
2017-04-27T20:31:01.749Z,72.80
2017-04-27T20:33:28.570Z,73.40
2017-04-27T20:35:55.118Z,73.40
2017-04-27T20:38:22.539Z,72.90
2017-04-27T20:40:49.510Z,72.40
2017-04-27T20:43:15.915Z,72.40
2017-04-27T20:45:42.810Z,71.90
2017-04-27T20:48:09.241Z,71.80
2017-04-27T20:50:36.231Z,72.50
2017-04-27T20:53:04.000Z,72.00
2017-04-27T20:55:30.498Z,72.00
2017-04-27T20:57:56.947Z,71.60
2017-04-27T21:00:23.491Z,72.00
2017-04-27T21:02:50.306Z,73.10
2017-04-27T21:05:17.199Z,72.80
2017-04-27T21:07:44.041Z,72.40
2017-04-27T21:10:10.955Z,74.60
2017-04-27T21:12:38.571Z,74.00
2017-04-27T21:15:05.476Z,74.00
2017-04-27T21:17:31.930Z,73.90
2017-04-27T21:19:59.008Z,73.30
2017-04-27T21:22:25.514Z,73.30
2017-04-27T21:24:52.722Z,73.00
2017-04-27T21:27:19.632Z,72.70
2017-04-27T21:29:46.073Z,72.70
2017-04-27T21:32:13.237Z,71.80
2017-04-27T21:34:40.020Z,71.60
2017-04-27T21:37:06.909Z,72.30
2017-04-27T21:39:33.397Z,72.30
2017-04-27T21:41:59.864Z,72.00
2017-04-27T21:44:26.706Z,71.80
2017-04-27T21:46:53.906Z,71.80
2017-04-27T21:49:20.734Z,71.60
2017-04-27T21:51:47.565Z,72.70
2017-04-27T21:54:13.972Z,72.70
2017-04-27T21:56:41.058Z,71.80
2017-04-27T21:59:07.871Z,71.80
2017-04-27T22:01:34.702Z,71.40
2017-04-27T22:04:01.135Z,71.40
2017-04-27T22:06:28.089Z,71.70
2017-04-27T22:08:54.891Z,71.90
2017-04-27T22:11:22.140Z,72.60
2017-04-27T22:13:48.567Z,72.60
2017-04-27T22:16:15.074Z,72.30
2017-04-27T22:18:41.554Z,72.00
2017-04-27T22:21:08.442Z,71.70
2017-04-27T22:23:34.881Z,71.70
2017-04-27T22:26:01.734Z,71.10
2017-04-27T22:28:28.533Z,72.00
2017-04-27T22:30:55.653Z,72.30
2017-04-27T22:33:22.467Z,71.50
2017-04-27T22:35:49.314Z,71.20
2017-04-27T22:38:16.145Z,71.60
2017-04-27T22:40:43.049Z,71.20
2017-04-27T22:43:09.882Z,71.30
2017-04-27T22:45:36.356Z,71.40
2017-04-27T22:48:02.799Z,72.00
2017-04-27T22:50:29.653Z,72.40
2017-04-27T22:52:56.438Z,72.20
2017-04-27T22:55:23.311Z,72.70
2017-04-27T22:57:49.747Z,72.70
2017-04-27T23:00:16.577Z,72.50
2017-04-27T23:02:43.431Z,71.70
2017-04-27T23:05:09.920Z,71.70
2017-04-27T23:07:36.330Z,72.20
2017-04-27T23:10:02.862Z,72.00
2017-04-27T23:12:30.027Z,71.90
2017-04-27T23:14:57.438Z,72.20
2017-04-27T23:17:24.429Z,73.40
2017-04-27T23:19:50.909Z,73.40
2017-04-27T23:22:17.868Z,72.30
2017-04-27T23:24:44.686Z,71.90
2017-04-27T23:27:11.538Z,71.80
2017-04-27T23:29:38.345Z,71.50
2017-04-27T23:32:04.829Z,71.50
2017-04-27T23:34:31.622Z,71.50
2017-04-27T23:36:58.524Z,71.70
2017-04-27T23:39:25.336Z,71.30
2017-04-27T23:41:52.597Z,71.80
2017-04-27T23:44:19.390Z,71.60
2017-04-27T23:46:46.627Z,72.20
2017-04-27T23:49:13.155Z,72.20
2017-04-27T23:51:40.030Z,72.40
2017-04-27T23:54:06.843Z,71.90
2017-04-27T23:56:33.299Z,71.90
2017-04-27T23:59:00.112Z,72.60
